Nearby METAR Reports

 

KSGR - Houston/Sugar La, Texas, USA
Distance from station: ESE 7mi, 12km
Updated: Sun, 05-Feb-2023 1:53am CST
Overcast
Overcast
 Wind from ESE
Wind: ESE 5 mph , 7 km/h
Temperature: 52°F , 11°C
Dew Point: 48°F , 9°C
Humidity: 88%
Barometer: 30.24 inHg , 1024 hPa
Clouds: Overcast
Visibility: 10 miles , 16 km
Cloud details: Overcast 5000 ft
2023/02/05 07:53 KSGR 050753Z AUTO 11004KT 10SM OVC050 11/09 A3024 RMK AO2 SLP241 T01060089 $
KTME - Houston Exec, Texas, USA
Distance from station: NW 14mi, 22km
Updated: Sun, 05-Feb-2023 1:55am CST
Mostly cloudy
Mostly cloudy
 Wind from calm
Wind: Calm
Temperature: 50°F , 10°C
Dew Point: 50°F , 10°C
Humidity: 100%
Barometer: 30.26 inHg , 1024.7 hPa
Clouds: Mostly cloudy
Visibility: 7 miles , 11 km
Cloud details: Mostly cloudy 5000 ft
2023/02/05 07:55 KTME 050755Z AUTO 00000KT 7SM BKN050 10/10 A3026 RMK AO2
 
KAXH - Houston/Southwst, Texas, USA
Distance from station: ESE 19mi, 31km
Updated: Sun, 05-Feb-2023 1:55am CST
Overcast
Overcast
 Wind from calm
Wind: Calm
Temperature: 50°F , 10°C
Dew Point: 48°F , 9°C
Humidity: 94%
Barometer: 30.26 inHg , 1024.7 hPa
Clouds: Overcast
Visibility: 7 miles , 11 km
Cloud details: Overcast 5000 ft
2023/02/05 07:55 KAXH 050755Z AUTO 00000KT 7SM OVC050 10/09 A3026 RMK AO2 T00970090
KMCJ - Houston/Univ, Texas, USA
Distance from station: ENE 23mi, 37km
Updated: Sun, 05-Feb-2023 2:15am CST
Overcast
Overcast
 Wind from SE
Wind: SE 10 mph , 17 km/h
Temperature: 54°F , 12°C
Dew Point: 52°F , 11°C
Humidity: 94%
Barometer: 30.22 inHg , 1023.4 hPa
Clouds: Overcast
Visibility: 10 miles , 16 km
Cloud details: Partly cloudy 3300 ft
Partly cloudy 4600 ft
Overcast 5500 ft
2023/02/05 08:15 KMCJ 050815Z AUTO 13009KT 10SM SCT033 SCT046 OVC055 12/11 A3022 RMK A01
 
KHOU - Houston/Hobby, Texas, USA
Distance from station: E 29mi, 47km
Updated: Sun, 05-Feb-2023 1:53am CST
Few Clouds
Few Clouds
 Wind from ESE
Wind: ESE 5 mph , 7 km/h
Temperature: 50°F , 10°C
Wind Chill: 48°F , 9°C
Dew Point: 48°F , 9°C
Humidity: 94%
Barometer: 30.24 inHg , 1024 hPa
Clouds: Few Clouds
Visibility: 10 miles , 16 km
Cloud details: Few Clouds 4500 ft
2023/02/05 07:53 KHOU 050753Z 12004KT 10SM FEW045 10/09 A3024 RMK AO2 SLP245 T01000089 $
KDWH - Houston/Dw Hooks, Texas, USA
Distance from station: NNE 32mi, 52km
Updated: Sun, 05-Feb-2023 2:01am CST
Mist, Clear
Mist, Clear
 Wind from calm
Wind: Calm
Temperature: 46°F , 8°C
Dew Point: 45°F , 7°C
Humidity: 93%
Barometer: 30.25 inHg , 1024.4 hPa
Summary: Mist
Clouds: Clear
Visibility: 1 3/4 miles , 2.8 km
2023/02/05 08:01 KDWH 050801Z AUTO 00000KT 1 3/4SM BR CLR 08/07 A3025 RMK AO2 T00780072
 
KLVJ - Houston, Texas, USA
Distance from station: ESE 32mi, 52km
Updated: Fri, 03-Feb-2023 8:53am CST
NOT Current
Mist, Overcast
Mist, Overcast
 Wind from N
Wind: N 12 mph , 19 km/h
Temperature: 43°F , 6°C
Wind Chill: 37°F , 3°C
Dew Point: 39°F , 4°C
Humidity: 87%
Barometer: 30.53 inHg , 1033.9 hPa
Summary: Mist
Clouds: Overcast
Visibility: 6 miles , 10 km
Cloud details: Overcast 500 ft
2023/02/03 14:53 KLVJ 031453Z AUTO 36010KT 6SM BR OVC005 06/04 A3053 RMK AO2 SLP337 T00610044 51030
KELA - Eagle Lake, Texas, USA
Distance from station: W 33mi, 53km
Updated: Sun, 05-Feb-2023 1:55am CST
Partly cloudy
Partly cloudy
 
Temperature: 50°F , 10°C
Dew Point: 48°F , 9°C
Humidity: 94%
Barometer: 30.24 inHg , 1024 hPa
Clouds: Partly cloudy
Visibility: 10 miles , 16 km
Cloud details: Partly cloudy 5000 ft
2023/02/05 07:55 KELA 050755Z AUTO 10SM SCT050 10/09 A3024 RMK AO2 T00970090
 
KIAH - Houston/Intnl, Texas, USA
Distance from station: NE 35mi, 56km
Updated: Sun, 05-Feb-2023 1:53am CST
Few Clouds
Few Clouds
 Wind from E
Wind: E 3 mph , 6 km/h
Temperature: 46°F , 8°C
Dew Point: 45°F , 7°C
Humidity: 93%
Barometer: 30.25 inHg , 1024.4 hPa
Clouds: Few Clouds
Visibility: 10 miles , 16 km
Cloud details: Few Clouds 3500 ft
2023/02/05 07:53 KIAH 050753Z 09003KT 10SM FEW035 08/07 A3025 RMK AO2 SLP245 T00780072
KARM - Wharton, Texas, USA
Distance from station: SW 35mi, 57km
Updated: Sun, 05-Feb-2023 1:55am CST
Partly cloudy
Partly cloudy
 Wind from calm
Wind: Calm
Temperature: 50°F , 10°C
Dew Point: 50°F , 10°C
Humidity: 100%
Barometer: 30.25 inHg , 1024.4 hPa
Clouds: Partly cloudy
Visibility: 10 miles , 16 km
Cloud details: Partly cloudy 5000 ft
2023/02/05 07:55 KARM 050755Z AUTO 00000KT 10SM SCT050 10/10 A3025 RMK AO2 T00990099 TSNO
 
KEFD - Houston/Ellingto, Texas, USA
Distance from station: E 36mi, 59km
Updated: Sun, 05-Feb-2023 1:54am CST
Clear
Clear
 Wind from E
Wind: E 1 mph , 2 km/h
Temperature: 48°F , 9°C
Dew Point: 48°F , 9°C
Humidity: 100%
Barometer: 30.24 inHg , 1024 hPa
Clouds: Clear
Visibility: 10 miles , 16 km
2023/02/05 07:54 KEFD 050754Z 10001KT 10SM CLR 09/09 A3024
KLBX - Angleton, Texas, USA
Distance from station: SSE 40mi, 65km
Updated: Sun, 05-Feb-2023 1:53am CST
Overcast
Overcast
 Wind from calm
Wind: Calm
Temperature: 52°F , 11°C
Dew Point: 52°F , 11°C
Humidity: 100%
Barometer: 30.24 inHg , 1024 hPa
Clouds: Overcast
Visibility: 7 miles , 11 km
Cloud details: Overcast 5500 ft
2023/02/05 07:53 KLBX 050753Z AUTO 00000KT 7SM OVC055 11/11 A3024 RMK AO2 SLP240 T01060106
 
K66R - Columbus, Texas, USA
Distance from station: W 45mi, 72km
Updated: Sun, 05-Feb-2023 1:55am CST
Clear
Clear
 Wind from calm
Wind: Calm
Temperature: 46°F , 8°C
Dew Point: 45°F , 7°C
Humidity: 93%
Barometer: 30.24 inHg , 1024 hPa
Clouds: Clear
Visibility: 10 miles , 16 km
2023/02/05 07:55 K66R 050755Z AUTO 00000KT 10SM CLR 08/07 A3024 RMK AO2 T00760071
KBYY - Bay City, Texas, USA
Distance from station: S 47mi, 75km
Updated: Sun, 05-Feb-2023 1:55am CST
Overcast
Overcast
 Wind from E
Wind: E 5 mph , 7 km/h
Temperature: 52°F , 11°C
Dew Point: 50°F , 10°C
Humidity: 94%
Barometer: 30.24 inHg , 1024 hPa
Clouds: Overcast
Visibility: 10 miles , 16 km
Cloud details: Overcast 5500 ft
2023/02/05 07:55 KBYY 050755Z AUTO 09004KT 10SM OVC055 11/10 A3024 RMK AO2 T01100104